| Date | Time | Temp. (oF) | Dew Point (oF) | Rel. Hum. (%) | Press. (in.) | Wind Dir. | Wind Speed (mph) | Hourly Rainfall (in.) |
|
|---|---|---|---|---|---|---|---|---|---|
| 1 | 08/15 | 00:00 | 77 | 75 | 94 | 29.97 | ESE | 0 | 0.00 |
| 2 | 08/14 | 23:00 | 77 | 74 | 93 | 29.96 | NE | 1 | 0.00 |
| 3 | 08/14 | 22:00 | 84 | 76 | 78 | 29.94 | S | 4 | 0.01 |
| 4 | 08/14 | 21:00 | 87 | 78 | 76 | 29.92 | SSW | 1 | 0.00 |
| 5 | 08/14 | 20:00 | 89 | 79 | 73 | 29.90 | SSW | 3 | 0.00 |
| 6 | 08/14 | 19:00 | 91 | 78 | 68 | 29.89 | SSW | 4 | 0.00 |
| 7 | 08/14 | 18:00 | 93 | 77 | 61 | 29.88 | SSE | 7 | 0.00 |
| 8 | miss | miss | miss | miss | miss | miss | miss | miss | |
| 9 | 08/14 | 17:26 | 94 | 77 | 60 | 29.87 | SSW | 4 | 0.00 |
| 10 | miss | miss | miss | miss | miss | miss | miss | miss | |
| 11 | 08/14 | 17:24 | 94 | 78 | 61 | 29.87 | SSE | 6 | 0.00 |
| 12 | miss | miss | miss | miss | miss | miss | miss | miss | |
| 13 | 08/14 | 17:22 | 94 | 77 | 60 | 29.87 | SSE | 10 | 0.00 |
| 14 | miss | miss | miss | miss | miss | miss | miss | miss | |
| 15 | 08/14 | 17:20 | 94 | 77 | 60 | 29.87 | S | 7 | 0.00 |
| 16 | miss | miss | miss | miss | miss | miss | miss | miss | |
| 17 | 08/14 | 17:18 | 94 | 78 | 61 | 29.87 | S | 7 | 0.00 |
| 18 | miss | miss | miss | miss | miss | miss | miss | miss | |
| 19 | 08/14 | 17:16 | 94 | 77 | 60 | 29.87 | SE | 6 | 0.00 |
| 20 | miss | miss | miss | miss | miss | miss | miss | miss | |
| 21 | 08/14 | 17:14 | 94 | 77 | 59 | 29.86 | S | 2 | 0.00 |
| 22 | miss | miss | miss | miss | miss | miss | miss | miss | |
| 23 | 08/14 | 17:12 | 94 | 78 | 61 | 29.86 | SSE | 5 | 0.00 |
| 24 | miss | miss | miss | miss | miss | miss | miss | miss | |
| 25 | 08/14 | 17:10 | 94 | 77 | 60 | 29.86 | SW | 6 | 0.00 |
| 26 | miss | miss | miss | miss | miss | miss | miss | miss | |
| 27 | 08/14 | 17:10 | 94 | 77 | 60 | 29.86 | SW | 6 | 0.00 |
| 28 | miss | miss | miss | miss | miss | miss | miss | miss | |
| 29 | 08/14 | 17:10 | 94 | 77 | 60 | 29.86 | SW | 6 | 0.00 |
| 30 | miss | miss | miss | miss | miss | miss | miss | miss | |
| 31 | 08/14 | 17:10 | 94 | 77 | 60 | 29.86 | SW | 6 | 0.00 |
| 32 | 08/14 | 17:00 | 94 | 78 | 61 | 29.86 | SSW | 7 | 0.00 |
| 33 | 08/14 | 16:00 | 95 | 81 | 66 | 29.88 | SSW | 6 | 0.00 |
| 34 | 08/14 | 15:00 | 93 | 77 | 62 | 29.90 | S | 11 | 0.00 |
| 35 | 08/14 | 14:00 | 92 | 78 | 65 | 29.91 | S | 8 | 0.00 |
| 36 | 08/14 | 13:00 | 93 | 80 | 68 | 29.92 | W | 1 | 0.00 |
| 37 | 08/14 | 12:00 | 90 | 79 | 71 | 29.93 | SW | 1 | 0.00 |
| 38 | 08/14 | 11:00 | 87 | 79 | 78 | 29.95 | SW | 4 | 0.00 |
| 39 | 08/14 | 10:00 | 84 | 80 | 88 | 29.95 | S | 6 | 0.00 |
| 40 | 08/14 | 09:00 | 81 | 79 | 96 | 29.95 | S | 1 | 0.00 |
| 41 | 08/14 | 08:00 | 79 | 78 | 100 | 29.95 | SSE | 2 | 0.00 |
| 42 | 08/14 |